createdAt,value
2023-02-04T00:02:26.807Z,87.80
2023-02-04T00:05:28.901Z,87.70
2023-02-04T00:08:30.798Z,87.90
2023-02-04T00:11:32.773Z,88.00
2023-02-04T00:14:34.656Z,88.00
2023-02-04T00:17:36.618Z,87.90
2023-02-04T00:20:38.473Z,88.00
2023-02-04T00:23:40.811Z,88.50
2023-02-04T00:26:42.727Z,88.50
2023-02-04T00:29:44.754Z,88.80
2023-02-04T00:32:47.819Z,89.50
2023-02-04T00:35:49.756Z,89.50
2023-02-04T00:38:51.658Z,89.30
2023-02-04T00:41:53.646Z,89.70
2023-02-04T00:44:56.158Z,90.00
2023-02-04T00:47:58.730Z,90.00
2023-02-04T00:51:00.596Z,90.10
2023-02-04T00:54:02.495Z,90.10
2023-02-04T00:57:04.411Z,90.20
2023-02-04T01:00:06.918Z,90.20
2023-02-04T01:03:09.023Z,90.70
2023-02-04T01:06:11.779Z,90.60
2023-02-04T01:09:13.765Z,90.50
2023-02-04T01:12:15.800Z,90.40
2023-02-04T01:15:18.012Z,90.50
2023-02-04T01:18:19.945Z,90.50
2023-02-04T01:21:23.471Z,90.60
2023-02-04T01:24:26.093Z,90.40
2023-02-04T01:27:46.779Z,90.50
2023-02-04T01:30:48.921Z,90.80
2023-02-04T01:33:50.972Z,90.50
2023-02-04T01:36:55.323Z,90.40
2023-02-04T01:39:57.225Z,91.00
2023-02-04T01:42:59.449Z,91.10
2023-02-04T01:46:01.636Z,91.30
2023-02-04T01:49:05.735Z,91.50
2023-02-04T01:52:09.849Z,91.50
2023-02-04T01:55:18.248Z,91.40
2023-02-04T01:58:20.567Z,91.90
2023-02-04T02:01:46.991Z,92.10
2023-02-04T02:04:48.926Z,91.90
2023-02-04T02:07:53.695Z,91.90
2023-02-04T02:10:55.616Z,91.70
2023-02-04T02:13:57.605Z,91.60
2023-02-04T02:16:59.643Z,91.70
2023-02-04T02:20:02.014Z,91.40
2023-02-04T02:23:16.818Z,91.30
2023-02-04T02:26:19.761Z,91.30
2023-02-04T02:29:22.931Z,92.00
2023-02-04T02:32:24.857Z,92.10
2023-02-04T02:35:28.357Z,91.80
2023-02-04T02:38:31.888Z,91.40
2023-02-04T02:41:36.581Z,91.40
2023-02-04T02:44:38.510Z,91.90
2023-02-04T02:47:40.441Z,91.40
2023-02-04T02:50:43.162Z,91.60
2023-02-04T02:53:47.834Z,91.70
2023-02-04T02:56:50.592Z,91.20
2023-02-04T02:59:53.047Z,91.20
2023-02-04T03:03:00.104Z,91.40
2023-02-04T03:06:12.919Z,91.40
2023-02-04T03:09:15.054Z,90.80
2023-02-04T03:12:17.093Z,90.70
2023-02-04T03:15:19.084Z,90.90
2023-02-04T03:18:22.371Z,90.60
2023-02-04T03:21:24.366Z,90.60
2023-02-04T03:24:26.391Z,90.60
2023-02-04T03:27:29.183Z,90.40
2023-02-04T03:30:32.042Z,89.70
2023-02-04T03:33:34.186Z,89.70
2023-02-04T03:36:36.129Z,90.00
2023-02-04T03:39:38.259Z,90.10
2023-02-04T03:42:40.551Z,89.90
2023-02-04T03:45:45.519Z,89.60
2023-02-04T03:48:48.006Z,89.60
2023-02-04T03:51:50.631Z,89.60
2023-02-04T03:54:52.960Z,89.90
2023-02-04T03:57:54.978Z,90.30
2023-02-04T04:00:57.196Z,90.10
2023-02-04T04:03:59.274Z,90.30
2023-02-04T04:07:01.262Z,90.30
2023-02-04T04:10:03.916Z,90.30
2023-02-04T04:13:06.018Z,90.20
2023-02-04T04:16:08.472Z,90.10
2023-02-04T04:19:10.515Z,90.00
2023-02-04T04:22:12.623Z,89.90
2023-02-04T04:25:14.725Z,90.00
2023-02-04T04:28:17.185Z,89.90
2023-02-04T04:31:20.131Z,90.00
2023-02-04T04:34:24.062Z,90.00
2023-02-04T04:37:26.160Z,90.20
2023-02-04T04:40:28.152Z,90.00
2023-02-04T04:43:30.194Z,89.90
2023-02-04T04:46:32.242Z,89.90
2023-02-04T04:49:34.308Z,89.80
2023-02-04T04:52:36.433Z,89.90
2023-02-04T04:55:39.325Z,90.10
2023-02-04T04:58:41.464Z,90.10
2023-02-04T05:01:43.579Z,89.90
2023-02-04T05:04:45.757Z,89.90
2023-02-04T05:07:47.964Z,89.80
2023-02-04T05:10:50.206Z,89.80
2023-02-04T05:13:52.526Z,89.90
2023-02-04T05:16:54.820Z,89.90
2023-02-04T05:20:00.633Z,89.70
2023-02-04T05:23:05.411Z,89.70
2023-02-04T05:26:07.930Z,89.60
2023-02-04T05:29:10.820Z,89.50
2023-02-04T05:32:13.188Z,89.60
2023-02-04T05:35:16.184Z,89.60
2023-02-04T05:38:18.329Z,89.80
2023-02-04T05:41:20.474Z,89.70
2023-02-04T05:44:22.722Z,89.60
2023-02-04T05:47:24.954Z,89.60
2023-02-04T05:50:27.172Z,89.70
2023-02-04T05:53:43.466Z,89.70
2023-02-04T05:56:47.159Z,89.40
2023-02-04T05:59:49.325Z,89.30
2023-02-04T06:02:51.497Z,89.80
2023-02-04T06:05:53.798Z,89.90
2023-02-04T06:08:55.903Z,89.10
2023-02-04T06:11:58.094Z,89.20
2023-02-04T06:15:02.843Z,89.10
2023-02-04T06:18:04.909Z,89.80
2023-02-04T06:21:06.991Z,89.10
2023-02-04T06:24:09.117Z,89.70
2023-02-04T06:27:11.309Z,89.00
2023-02-04T06:30:14.369Z,88.90
2023-02-04T06:33:16.396Z,88.90
2023-02-04T06:36:18.403Z,89.40
2023-02-04T06:39:20.458Z,89.80
2023-02-04T06:42:22.471Z,89.90
2023-02-04T06:45:24.504Z,89.80
2023-02-04T06:48:26.523Z,89.30
2023-02-04T06:51:28.552Z,89.30
2023-02-04T06:54:30.572Z,89.20
2023-02-04T06:57:32.646Z,89.40
2023-02-04T07:00:35.055Z,89.80
2023-02-04T07:03:38.040Z,90.10
2023-02-04T07:06:40.381Z,90.20
2023-02-04T07:09:42.387Z,90.30
2023-02-04T07:12:44.479Z,90.20
2023-02-04T07:15:46.562Z,90.10
2023-02-04T07:18:48.754Z,90.00
2023-02-04T07:21:50.816Z,90.00
2023-02-04T07:24:53.236Z,90.00
2023-02-04T07:27:55.389Z,90.10
2023-02-04T07:30:58.069Z,89.70
2023-02-04T07:34:00.180Z,90.10
2023-02-04T07:37:02.332Z,90.00
2023-02-04T07:40:05.198Z,90.20
2023-02-04T07:43:07.236Z,90.00
2023-02-04T07:46:10.467Z,89.80
2023-02-04T07:49:12.614Z,90.20
2023-02-04T07:52:14.661Z,90.10
2023-02-04T07:55:16.852Z,89.80
2023-02-04T07:58:18.940Z,90.30
2023-02-04T08:01:20.966Z,90.00
2023-02-04T08:04:25.704Z,89.70
2023-02-04T08:07:27.780Z,89.80
2023-02-04T08:10:30.113Z,89.90
2023-02-04T08:13:32.565Z,89.60
2023-02-04T08:16:34.760Z,90.20
2023-02-04T08:19:36.792Z,90.00
2023-02-04T08:22:38.936Z,88.80
2023-02-04T08:25:41.116Z,88.80
2023-02-04T08:28:43.240Z,87.70
2023-02-04T08:31:45.325Z,88.20
2023-02-04T08:34:47.417Z,88.70
2023-02-04T08:37:49.456Z,88.10
2023-02-04T08:40:51.464Z,87.20
2023-02-04T08:43:53.480Z,87.00
2023-02-04T08:46:55.822Z,85.90
2023-02-04T08:49:58.041Z,85.10
2023-02-04T08:53:00.072Z,85.60
2023-02-04T08:56:02.125Z,85.20
2023-02-04T08:59:04.360Z,85.40
2023-02-04T09:02:07.225Z,84.80
2023-02-04T09:05:09.251Z,84.30
2023-02-04T09:08:11.352Z,82.20
2023-02-04T09:11:13.407Z,82.00
2023-02-04T09:14:15.709Z,81.90
2023-02-04T09:17:17.884Z,83.20
2023-02-04T09:20:20.355Z,82.40
2023-02-04T09:23:22.482Z,81.40
2023-02-04T09:26:24.613Z,81.70
2023-02-04T09:29:26.919Z,79.90
2023-02-04T09:32:40.100Z,79.50
2023-02-04T09:35:42.140Z,79.40
2023-02-04T09:38:44.089Z,79.80
2023-02-04T09:41:46.082Z,78.20
2023-02-04T09:44:47.984Z,78.80
2023-02-04T09:47:51.519Z,77.30
2023-02-04T09:51:05.370Z,77.30
2023-02-04T09:54:15.951Z,76.30
2023-02-04T09:57:19.843Z,76.80
2023-02-04T10:00:25.321Z,76.20
2023-02-04T10:03:30.142Z,77.00
2023-02-04T10:06:32.329Z,77.20
2023-02-04T10:09:34.310Z,75.10
2023-02-04T10:12:36.233Z,74.10
2023-02-04T10:15:38.675Z,74.60
2023-02-04T10:18:41.184Z,74.40
2023-02-04T10:21:45.098Z,73.10
2023-02-04T10:24:47.246Z,73.10
2023-02-04T10:27:57.836Z,74.10
2023-02-04T10:31:00.209Z,75.00
2023-02-04T10:34:14.193Z,74.90
2023-02-04T10:37:21.838Z,75.90
2023-02-04T10:40:27.974Z,74.60
2023-02-04T10:43:30.106Z,73.20
2023-02-04T10:46:32.517Z,73.90
2023-02-04T10:49:34.444Z,72.90
2023-02-04T10:52:41.980Z,72.00
2023-02-04T10:55:45.662Z,71.60
2023-02-04T10:58:48.227Z,71.90
2023-02-04T11:01:50.097Z,72.90
2023-02-04T11:04:52.553Z,72.30
2023-02-04T11:07:54.434Z,73.50
2023-02-04T11:10:59.780Z,73.50
2023-02-04T11:14:02.871Z,74.70
2023-02-04T11:17:04.915Z,70.80
2023-02-04T11:20:17.862Z,71.50
2023-02-04T11:23:25.884Z,71.60
2023-02-04T11:26:42.476Z,70.30
2023-02-04T11:29:44.432Z,70.70
2023-02-04T11:33:00.780Z,69.60
2023-02-04T11:36:08.049Z,70.20
2023-02-04T11:39:17.125Z,70.30
2023-02-04T11:42:41.557Z,71.20
2023-02-04T11:45:43.870Z,71.10
2023-02-04T11:48:45.977Z,68.30
2023-02-04T12:03:45.915Z,65.10
2023-02-04T12:06:58.581Z,66.30
2023-02-04T12:10:15.484Z,64.80
2023-02-04T12:13:22.813Z,65.00
2023-02-04T12:16:25.530Z,65.40
2023-02-04T12:19:28.080Z,65.70
2023-02-04T12:22:30.072Z,67.60
2023-02-04T12:25:32.641Z,67.30
2023-02-04T12:28:34.956Z,68.20
2023-02-04T12:31:37.027Z,66.80
2023-02-04T12:34:39.005Z,66.30
2023-02-04T12:37:41.011Z,65.90
2023-02-04T12:40:42.932Z,66.00
2023-02-04T12:43:44.784Z,66.70
2023-02-04T12:46:47.271Z,69.20
2023-02-04T12:49:49.329Z,65.90
2023-02-04T12:52:55.772Z,64.70
2023-02-04T12:55:57.888Z,65.70
2023-02-04T12:58:59.818Z,65.10
2023-02-04T13:02:01.774Z,64.60
2023-02-04T13:05:03.747Z,63.30
2023-02-04T13:08:05.732Z,65.50
2023-02-04T13:11:07.724Z,64.80
2023-02-04T13:14:09.595Z,62.30
2023-02-04T13:17:11.863Z,63.00
2023-02-04T13:20:13.831Z,64.00
2023-02-04T13:23:15.757Z,62.60
2023-02-04T13:26:17.636Z,61.90
2023-02-04T13:29:19.759Z,61.00
2023-02-04T13:32:21.727Z,60.40
2023-02-04T13:35:23.683Z,59.90
2023-02-04T13:38:25.536Z,59.50
2023-02-04T13:41:28.358Z,59.30
2023-02-04T13:44:30.239Z,59.20
2023-02-04T13:47:32.118Z,58.10
2023-02-04T13:50:34.310Z,60.60
2023-02-04T13:53:36.433Z,61.40
2023-02-04T13:56:40.581Z,60.80
2023-02-04T13:59:42.484Z,61.70
2023-02-04T14:02:44.470Z,60.30
2023-02-04T14:05:46.454Z,60.30
2023-02-04T14:08:48.803Z,60.10
2023-02-04T14:11:50.685Z,60.80
2023-02-04T14:14:52.695Z,58.80
2023-02-04T14:17:54.591Z,57.40
2023-02-04T14:20:56.469Z,57.80
2023-02-04T14:23:58.488Z,57.40
2023-02-04T14:27:00.405Z,59.50
2023-02-04T14:30:02.387Z,57.20
2023-02-04T14:33:04.573Z,58.10
2023-02-04T14:36:06.790Z,57.10
2023-02-04T14:39:09.085Z,58.70
2023-02-04T14:42:11.132Z,57.60
2023-02-04T14:45:14.544Z,57.60
2023-02-04T14:48:16.494Z,58.50
2023-02-04T14:51:18.912Z,58.20
2023-02-04T14:54:20.892Z,59.10
2023-02-04T14:57:22.979Z,59.90
2023-02-04T15:00:25.051Z,59.20
2023-02-04T15:03:26.975Z,59.80
2023-02-04T15:06:28.871Z,58.40
2023-02-04T15:09:30.788Z,58.30
2023-02-04T15:12:32.649Z,59.50
2023-02-04T15:15:34.724Z,60.60
2023-02-04T15:18:36.620Z,61.40
2023-02-04T15:21:38.568Z,62.40
2023-02-04T15:24:40.535Z,61.70
2023-02-04T15:27:42.564Z,62.80
2023-02-04T15:30:44.605Z,61.80
2023-02-04T15:33:46.522Z,64.30
2023-02-04T15:36:50.953Z,63.60
2023-02-04T15:39:53.261Z,64.20
2023-02-04T15:42:55.488Z,64.90
2023-02-04T15:45:57.654Z,64.50
2023-02-04T15:48:59.753Z,64.60
2023-02-04T15:52:02.086Z,64.80
2023-02-04T15:55:04.385Z,66.40
2023-02-04T15:58:06.440Z,67.00
2023-02-04T16:01:08.485Z,65.80
2023-02-04T16:04:12.217Z,67.50
2023-02-04T16:07:14.316Z,69.20
2023-02-04T16:10:18.456Z,67.70
2023-02-04T16:13:21.465Z,68.50
2023-02-04T16:16:23.611Z,69.20
2023-02-04T16:19:25.685Z,68.20
2023-02-04T16:22:27.826Z,68.20
2023-02-04T16:25:30.560Z,67.70
2023-02-04T16:28:33.783Z,67.20
2023-02-04T16:31:35.830Z,67.90
2023-02-04T16:34:37.781Z,69.00
2023-02-04T16:37:40.201Z,69.90
2023-02-04T16:40:42.273Z,70.60
2023-02-04T16:43:44.407Z,70.90
2023-02-04T16:46:46.604Z,71.50
2023-02-04T16:49:48.864Z,71.90
2023-02-04T16:52:53.657Z,72.40
2023-02-04T16:55:55.729Z,72.70
2023-02-04T16:58:57.798Z,74.00
2023-02-04T17:02:00.006Z,73.90
2023-02-04T17:05:02.672Z,73.70
2023-02-04T17:08:05.888Z,73.70
2023-02-04T17:11:08.030Z,74.20
2023-02-04T17:14:11.983Z,74.70
2023-02-04T17:17:14.106Z,74.40
2023-02-04T17:20:16.369Z,75.40
2023-02-04T17:23:18.384Z,74.50
2023-02-04T17:26:20.535Z,74.70
2023-02-04T17:29:22.696Z,75.30
2023-02-04T17:32:24.920Z,75.50
2023-02-04T17:35:27.282Z,75.60
2023-02-04T17:38:30.283Z,76.00
2023-02-04T17:41:33.345Z,76.00
2023-02-04T17:44:35.368Z,76.40
2023-02-04T17:47:38.941Z,76.60
2023-02-04T17:50:41.892Z,77.30
2023-02-04T17:53:44.105Z,77.30
2023-02-04T17:56:46.134Z,77.30
2023-02-04T17:59:51.668Z,77.50
2023-02-04T18:02:54.299Z,78.10
2023-02-04T18:05:57.165Z,77.90
2023-02-04T18:08:59.379Z,78.10
2023-02-04T18:12:02.642Z,77.80
2023-02-04T18:15:26.413Z,78.60
2023-02-04T18:18:41.177Z,78.60
2023-02-04T18:21:44.041Z,78.60
2023-02-04T18:24:46.829Z,78.60
2023-02-04T18:27:48.999Z,78.60
2023-02-04T18:30:54.944Z,78.80
2023-02-04T18:33:58.010Z,79.00
2023-02-04T18:37:00.794Z,79.30
2023-02-04T18:40:09.247Z,79.30
2023-02-04T18:43:25.022Z,79.00
2023-02-04T18:46:32.238Z,79.20
2023-02-04T18:49:38.713Z,79.50
2023-02-04T18:52:40.875Z,79.60
2023-02-04T18:55:51.370Z,79.50
2023-02-04T18:58:53.494Z,79.30
2023-02-04T19:01:58.924Z,79.90
2023-02-04T19:05:13.048Z,79.30
2023-02-04T19:08:26.378Z,79.30
2023-02-04T19:11:47.024Z,79.30
2023-02-04T19:14:49.068Z,79.40
2023-02-04T19:17:51.517Z,79.50
2023-02-04T19:20:53.567Z,79.30
2023-02-04T19:24:15.286Z,79.30
2023-02-04T19:27:29.737Z,79.60
2023-02-04T19:30:31.862Z,79.40
2023-02-04T19:33:42.911Z,79.70
2023-02-04T19:36:47.908Z,79.50
2023-02-04T19:39:51.948Z,79.80
2023-02-04T19:42:55.223Z,79.90
2023-02-04T19:45:57.443Z,79.40
2023-02-04T19:48:59.479Z,80.20
2023-02-04T19:52:02.116Z,80.60
2023-02-04T19:55:19.236Z,80.10
2023-02-04T19:58:22.460Z,79.70
2023-02-04T20:01:32.477Z,79.90
2023-02-04T20:04:47.541Z,79.80
2023-02-04T20:07:49.877Z,79.80
2023-02-04T20:10:51.873Z,80.30
2023-02-04T20:14:01.241Z,79.60
2023-02-04T20:17:23.094Z,80.10
2023-02-04T20:20:32.752Z,78.90
2023-02-04T20:23:35.531Z,79.40
2023-02-04T20:26:37.608Z,79.00
2023-02-04T20:29:39.760Z,79.50
2023-02-04T20:32:44.999Z,79.70
2023-02-04T20:35:53.511Z,79.50
2023-02-04T20:39:09.440Z,79.80
2023-02-04T20:42:26.251Z,80.40
2023-02-04T20:45:53.820Z,80.00
2023-02-04T20:48:55.885Z,79.80
2023-02-04T20:52:00.205Z,79.80
2023-02-04T20:55:02.350Z,79.50
2023-02-04T20:58:23.648Z,79.60
2023-02-04T21:01:32.423Z,79.70
2023-02-04T21:04:37.782Z,79.70
2023-02-04T21:07:44.556Z,79.80
2023-02-04T21:10:47.812Z,80.20
2023-02-04T21:13:51.433Z,80.50
2023-02-04T21:16:54.417Z,80.50
2023-02-04T21:19:56.634Z,80.80
2023-02-04T21:23:06.985Z,80.60
2023-02-04T21:26:09.844Z,81.00
2023-02-04T21:29:12.048Z,80.60
2023-02-04T21:32:14.104Z,81.20
2023-02-04T21:35:16.166Z,80.70
2023-02-04T21:38:18.104Z,80.60
2023-02-04T21:41:20.270Z,80.60
2023-02-04T21:44:22.245Z,79.80
2023-02-04T21:47:24.163Z,79.90
2023-02-04T21:50:26.324Z,80.70
2023-02-04T21:53:28.242Z,80.90
2023-02-04T21:56:30.897Z,81.40
2023-02-04T21:59:35.642Z,81.00
2023-02-04T22:02:37.720Z,81.00
2023-02-04T22:05:39.977Z,80.50
2023-02-04T22:08:41.955Z,80.80
2023-02-04T22:11:44.038Z,80.60
2023-02-04T22:14:47.447Z,80.60
2023-02-04T22:17:50.822Z,81.20
2023-02-04T22:20:52.996Z,81.00
2023-02-04T22:23:55.045Z,81.50
2023-02-04T22:26:57.421Z,81.40
2023-02-04T22:30:00.567Z,81.20
2023-02-04T22:33:02.521Z,81.70
2023-02-04T22:36:04.520Z,82.20
2023-02-04T22:39:06.637Z,81.50
2023-02-04T22:42:08.719Z,81.30
2023-02-04T22:45:11.409Z,81.50
2023-02-04T22:48:13.384Z,81.60
2023-02-04T22:51:18.325Z,82.30
2023-02-04T22:54:20.532Z,82.50
2023-02-04T22:57:22.496Z,82.90
2023-02-04T23:00:24.586Z,82.50
2023-02-04T23:03:26.790Z,82.40
2023-02-04T23:06:29.003Z,82.40
2023-02-04T23:09:34.070Z,82.00
2023-02-04T23:12:35.981Z,82.10
2023-02-04T23:15:38.282Z,82.80
2023-02-04T23:18:40.278Z,82.40
2023-02-04T23:21:42.834Z,82.20
2023-02-04T23:24:44.873Z,83.50
2023-02-04T23:27:47.337Z,82.70
2023-02-04T23:30:50.856Z,82.80
2023-02-04T23:33:52.783Z,82.90
2023-02-04T23:36:54.724Z,83.00
2023-02-04T23:39:56.600Z,82.90
2023-02-04T23:42:58.604Z,83.00
2023-02-04T23:46:00.626Z,83.30
2023-02-04T23:49:02.651Z,82.90
2023-02-04T23:52:04.738Z,82.70
2023-02-04T23:55:06.988Z,82.60
2023-02-04T23:58:09.154Z,82.60
